Home > Products > Valid Products > TAF

000
FTUS43 KMQT 020536
TAFCMX
TAF
KCMX 020536Z 0206/0306 20009KT P6SM BKN070 WS010/23040KT
     FM020800 26013G19KT P6SM BKN150
     FM021800 27020G30KT P6SM SCT120
     FM030100 29022G32KT P6SM BKN060=



000
FTUS43 KMQT 012338
TAFCMX
TAF
KCMX 012338Z 0200/0224 17009KT P6SM SCT060 BKN080 WS010/19035KT
      TEMPO 0200/0202 -SHRA
     FM020400 18011KT P6SM BKN070 WS010/21040KT
     FM020600 23011KT P6SM BKN070 WS010/23040KT
     FM020800 26013G19KT P6SM BKN150
     FM022000 28024G32KT P6SM SCT120=



000
FTUS43 KMQT 012338
TAFSAW
TAF
KSAW 012338Z 0200/0224 18015KT P6SM -SHRA SCT050 BKN070
      WS005/18040KT
     FM020300 18015KT P6SM BKN070 WS005/20040KT
     FM021000 21008KT P6SM SCT030 BKN100
     FM021400 29010KT P6SM SCT120
     FM022100 27012G18KT P6SM SKC=



000
FTUS43 KMQT 012217 AAB
TAFCMX
TAF AMD
KCMX 012217Z 0122/0218 10011KT P6SM BKN100 WS010/18030KT
      TEMPO 0122/0124 -SHRA BKN070
     FM020000 11011KT P6SM BKN070 WS010/19035KT
     FM020400 18011KT P6SM -SHRA OVC060 WS010/21035KT
     FM020600 22011G17KT P6SM OVC060 WS010/23040KT
     FM020800 26012G17KT P6SM BKN040=



000
FTUS43 KMQT 012108 AAA
TAFSAW
TAF AMD
KSAW 012108Z 0121/0218 18017G24KT P6SM BKN100
     FM012300 18016KT P6SM -SHRA BKN080 WS015/19045KT
     FM020300 18015KT P6SM BKN120 WS015/19050KT
     FM021000 22008KT P6SM -SHRA BKN030 WS015/24040KT
     FM021300 25006KT P6SM BKN050
     FM021500 29007KT P6SM SCT110=



000
FTUS43 KMQT 012108 AAA
TAFSAW
TAF AMD
KSAW 012108Z 0121/0218 18017G24KT P6SM BKN100
     FM012300 18016KT P6SM -SHRA BKN080 WS015/19045KT
     FM020300 18015KT P6SM BKN120 WS015/19050KT
     FM021000 22008KT P6SM -SHRA BKN030 WS015/24040KT
     FM021300 25006KT P6SM BKN050
     FM021500 29007KT P6SM SCT110=



000
FTUS43 KMQT 012014 AAA
TAFCMX
TAF AMD
KCMX 012014Z 0120/0218 14013KT P6SM BKN080
     FM012130 14017G24KT P6SM -SHRA BKN050
     FM020400 18011G17KT P6SM -SHRA OVC060 WS020/21040KT
     FM020600 22011G17KT P6SM OVC060 WS020/23050KT
     FM020800 26012G17KT P6SM BKN040=



000
FTUS43 KMQT 012014 AAA
TAFCMX
TAF AMD
KCMX 012014Z 0120/0218 14013KT P6SM BKN080
     FM012130 14017G24KT P6SM -SHRA BKN050
     FM020400 18011G17KT P6SM -SHRA OVC060 WS020/21040KT
     FM020600 22011G17KT P6SM OVC060 WS020/23050KT
     FM020800 26012G17KT P6SM BKN040=



000
FTUS43 KMQT 011736
TAFSAW
TAF
KSAW 011736Z 0118/0218 18012KT P6SM BKN045
     FM012300 18013G21KT P6SM -SHRA BKN080 WS020/19045KT
     FM020300 18014G20KT P6SM BKN120 WS015/19050KT
     FM021000 22008KT P6SM -SHRA BKN030 WS015/24040KT
     FM021300 25006KT P6SM BKN050
     FM021500 29007KT P6SM SCT110=



000
FTUS43 KMQT 011736
TAFCMX
TAF
KCMX 011736Z 0118/0218 14013KT P6SM BKN080
     FM012100 14017G24KT P6SM -SHRA BKN100
     FM020400 18011G17KT P6SM -SHRA OVC060 WS020/21040KT
     FM020600 22011G17KT P6SM OVC060 WS020/23050KT
     FM020800 26012G17KT P6SM BKN040=



000
FTUS43 KMQT 011736
TAFSAW
TAF
KSAW 011736Z 0118/0218 18012KT P6SM BKN045
     FM012300 18013G21KT P6SM -SHRA BKN080 WS020/19045KT
     FM020300 18014G20KT P6SM BKN120 WS015/19050KT
     FM021000 22008KT P6SM -SHRA BKN030 WS015/24040KT
     FM021300 25006KT P6SM BKN050
     FM021500 29007KT P6SM SCT110=



000
FTUS43 KMQT 011736
TAFCMX
TAF
KCMX 011736Z 0118/0218 14013KT P6SM BKN080
     FM012100 14017G24KT P6SM -SHRA BKN100
     FM020400 18011G17KT P6SM -SHRA OVC060 WS020/21040KT
     FM020600 22011G17KT P6SM OVC060 WS020/23050KT
     FM020800 26012G17KT P6SM BKN040=



000
FTUS43 KMQT 011619 AAB
TAFSAW
TAF AMD
KSAW 011619Z 0116/0212 20011KT P6SM BKN070
     FM011800 18012G19KT P6SM BKN050
     FM012200 17015G25KT P6SM -SHRA BKN110
     FM020700 21011G17KT P6SM -SHRA OVC080 WS020/23050KT
     FM020900 21009KT P6SM -SHRA OVC030 WS020/24045KT=



000
FTUS43 KMQT 011619 AAB
TAFSAW
TAF AMD
KSAW 011619Z 0116/0212 20011KT P6SM BKN070
     FM011800 18012G19KT P6SM BKN050
     FM012200 17015G25KT P6SM -SHRA BKN110
     FM020700 21011G17KT P6SM -SHRA OVC080 WS020/23050KT
     FM020900 21009KT P6SM -SHRA OVC030 WS020/24045KT=



000
FTUS43 KMQT 011351 AAA
TAFSAW
TAF AMD
KSAW 011351Z 0114/0212 19008KT P6SM BKN008
      TEMPO 0114/0115 3SM BR BKN004
     FM011600 18011KT P6SM BKN030
     FM011800 18012G19KT P6SM BKN050
     FM012200 17015G25KT P6SM -SHRA BKN110
     FM020700 21011G17KT P6SM -SHRA OVC080 WS020/23050KT
     FM020900 21009KT P6SM -SHRA OVC030 WS020/24045KT=



000
FTUS43 KMQT 011351 AAA
TAFSAW
TAF AMD
KSAW 011351Z 0114/0212 19008KT P6SM BKN008
      TEMPO 0114/0115 3SM BR BKN004
     FM011600 18011KT P6SM BKN030
     FM011800 18012G19KT P6SM BKN050
     FM012200 17015G25KT P6SM -SHRA BKN110
     FM020700 21011G17KT P6SM -SHRA OVC080 WS020/23050KT
     FM020900 21009KT P6SM -SHRA OVC030 WS020/24045KT=



000
FTUS43 KMQT 011347 AAA
TAFCMX
TAF AMD
KCMX 011347Z 0114/0212 13009KT 2SM BR BKN002
      TEMPO 0114/0115 1/2SM FG BKN006
     FM011500 14010KT 5SM BR BKN050
     FM011800 14013KT P6SM BKN080
     FM012100 14017G24KT P6SM -SHRA BKN100
     FM020400 18011G17KT P6SM -SHRA OVC060 WS020/21040KT
     FM020600 22011G17KT P6SM OVC060 WS020/23050KT
     FM020800 26012G17KT P6SM BKN040=



000
FTUS43 KMQT 011347 AAA
TAFCMX
TAF AMD
KCMX 011347Z 0114/0212 13009KT 2SM BR BKN002
      TEMPO 0114/0115 1/2SM FG BKN006
     FM011500 14010KT 5SM BR BKN050
     FM011800 14013KT P6SM BKN080
     FM012100 14017G24KT P6SM -SHRA BKN100
     FM020400 18011G17KT P6SM -SHRA OVC060 WS020/21040KT
     FM020600 22011G17KT P6SM OVC060 WS020/23050KT
     FM020800 26012G17KT P6SM BKN040=



000
FTUS43 KMQT 011130
TAFSAW
TAF
KSAW 011130Z 0112/0212 09004KT P6SM BKN008
     FM011500 18009KT P6SM BKN030
     FM011700 18012G18KT P6SM BKN050
     FM012200 17015G25KT P6SM -SHRA BKN110
     FM020700 21011G17KT P6SM -SHRA OVC080 WS020/23050KT
     FM020900 21009KT P6SM -SHRA OVC030 WS020/24045KT=



000
FTUS43 KMQT 011130
TAFCMX
TAF
KCMX 011130Z 0112/0212 12009KT 3SM BR BKN002
     FM011400 13008KT P6SM BKN035
     FM011800 13012KT P6SM BKN080
     FM012100 14017G24KT P6SM -SHRA BKN100
     FM020400 18011G17KT P6SM -SHRA OVC060 WS020/21040KT
     FM020600 22011G17KT P6SM OVC060 WS020/23050KT
     FM020800 26012G17KT P6SM BKN040=



000
FTUS43 KMQT 010533
TAFCMX
TAF
KCMX 010533Z 0106/0206 VRB03KT 3SM BR OVC003
      TEMPO 0108/0112 6SM BR SCT005 OVC010
     FM011200 12005KT 6SM BR OVC012
     FM011400 13008KT P6SM BKN080
     FM011600 12010G19KT P6SM -SHRA BKN100
     FM020200 17010G18KT P6SM -SHRA OVC080=



000
FTUS43 KMQT 010533
TAFSAW
TAF
KSAW 010533Z 0106/0206 36005KT 4SM BR BKN004
     FM010900 VRB03KT P6SM BKN012
     FM011400 17012G19KT P6SM SCT020 BKN040
     FM011800 17013G23KT P6SM -SHRA OVC100
     FM020200 19012G22KT P6SM -SHRA OVC070=



000
FTUS43 KMQT 010533
TAFCMX
TAF
KCMX 010533Z 0106/0206 VRB03KT 3SM BR OVC003
      TEMPO 0108/0112 6SM BR SCT005 OVC010
     FM011200 12005KT 6SM BR OVC012
     FM011400 13008KT P6SM BKN080
     FM011600 12010G19KT P6SM -SHRA BKN100
     FM020200 17010G18KT P6SM -SHRA OVC080=



000
FTUS43 KMQT 010533
TAFSAW
TAF
KSAW 010533Z 0106/0206 36005KT 4SM BR BKN004
     FM010900 VRB03KT P6SM BKN012
     FM011400 17012G19KT P6SM SCT020 BKN040
     FM011800 17013G23KT P6SM -SHRA OVC100
     FM020200 19012G22KT P6SM -SHRA OVC070=



000
FTUS43 KMQT 010344 AAB
TAFCMX
TAF AMD
KCMX 010344Z 0104/0124 08006KT 1SM BR OVC002
      TEMPO 0104/0106 2SM BR OVC005
     FM010600 VRB03KT 4SM BR OVC009
     FM011300 12007KT P6SM SCT012 BKN080
     FM011600 12010G19KT P6SM -SHRA BKN100=



000
FTUS43 KMQT 010156 AAB
TAFSAW
TAF AMD
KSAW 010156Z 0102/0124 04004KT 1SM BR OVC003
      TEMPO 0102/0104 3SM BR OVC006
     FM010400 34005KT P6SM BKN012
     FM010900 VRB03KT P6SM BKN015
     FM011500 17012G19KT P6SM SCT020 BKN080
     FM011800 18013G23KT P6SM -SHRA OVC100=



000
FTUS43 KMQT 010125 AAA
TAFSAW
TAF AMD
KSAW 010125Z 0101/0124 04004KT P6SM OVC006
      TEMPO 0101/0102 3SM -RA BR
     FM010300 34005KT P6SM BKN012
     FM010900 VRB03KT P6SM BKN015
     FM011500 17012G19KT P6SM SCT020 BKN080
     FM011800 18013G23KT P6SM -SHRA OVC100=



000
FTUS43 KMQT 010100 AAA
TAFCMX
TAF AMD
KCMX 010100Z 0101/0124 VRB03KT 1/4SM FG VV002
      TEMPO 0102/0106 1SM BR OVC005
     FM010600 VRB03KT 4SM BR OVC009
     FM011300 12007KT P6SM SCT012 BKN080
     FM011600 12010G19KT P6SM -SHRA BKN100=



000
FTUS43 KMQT 312336
TAFSAW
TAF
KSAW 312336Z 0100/0124 01005KT P6SM OVC015
     FM010200 34005KT P6SM BKN012
     FM010900 VRB03KT P6SM BKN015
     FM011500 17012G19KT P6SM SCT020 BKN080
     FM011800 18013G23KT P6SM -SHRA OVC100=



000
FTUS43 KMQT 312336
TAFCMX
TAF
KCMX 312336Z 0100/0124 35007KT P6SM OVC005
     FM010300 VRB03KT P6SM OVC005
      TEMPO 0103/0106 4SM BR
     FM010600 VRB03KT 4SM BR OVC009
     FM011300 12007KT P6SM SCT012 BKN080
     FM011600 12010G19KT P6SM -SHRA BKN100=



000
FTUS43 KMQT 312021 AAA
TAFCMX
TAF AMD
KCMX 312021Z 3120/0118 VRB03KT 3SM BR OVC003
     FM010200 VRB03KT P6SM OVC003
     FM011400 13010KT P6SM SCT010 OVC080=



000
FTUS43 KMQT 312018 AAA
TAFSAW
TAF AMD
KSAW 312018Z 3120/0118 15006KT P6SM VCSH OVC040
     FM010100 02005KT P6SM BKN020
     FM011500 16012G18KT P6SM SCT020 BKN100=



000
FTUS43 KMQT 311739
TAFCMX
TAF
KCMX 311739Z 3118/0118 09006KT 3SM -SHSN BKN004 OVC012
     FM312000 35009KT P6SM VCSH OVC010
     FM010200 06005KT P6SM BKN015
     FM011400 13010KT P6SM OVC080=



000
FTUS43 KMQT 311739
TAFSAW
TAF
KSAW 311739Z 3118/0118 18008KT P6SM OVC060
     FM311900 18009KT 5SM -SHSN OVC030
     FM312000 15006KT P6SM VCSH OVC015
     FM010100 02005KT P6SM BKN010
     FM011500 16012G18KT P6SM SCT020 BKN100=



000
FTUS43 KMQT 311739
TAFSAW
TAF
KSAW 311739Z 3118/0118 18008KT P6SM OVC060
     FM311900 18009KT 5SM -SHSN OVC030
     FM312000 15006KT P6SM VCSH OVC015
     FM010100 02005KT P6SM BKN010
     FM011500 16012G18KT P6SM SCT020 BKN100=



000
FTUS43 KMQT 311739
TAFCMX
TAF
KCMX 311739Z 3118/0118 09006KT 3SM -SHSN BKN004 OVC012
     FM312000 35009KT P6SM VCSH OVC010
     FM010200 06005KT P6SM BKN015
     FM011400 13010KT P6SM OVC080=



000
FTUS43 KMQT 311300 AAB
TAFCMX
TAF AMD
KCMX 311300Z 3113/0112 10006KT 1/4SM FZFG VV002
      TEMPO 3113/3115 2SM -SN BR BKN004
     FM311500 09005KT 3SM -SHSN OVC012
     FM311800 28003KT P6SM VCSH OVC012
     FM010000 04005KT P6SM BKN015=



000
FTUS43 KMQT 311300 AAB
TAFCMX
TAF AMD
KCMX 311300Z 3113/0112 10006KT 1/4SM FZFG VV002
      TEMPO 3113/3115 2SM -SN BR BKN004
     FM311500 09005KT 3SM -SHSN OVC012
     FM311800 28003KT P6SM VCSH OVC012
     FM010000 04005KT P6SM BKN015=



000
FTUS43 KMQT 311153 AAA
TAFCMX
TAF AMD
KCMX 311153Z 3112/0112 10006KT P6SM SCT004
      TEMPO 3112/3114 2SM BR BKN004
     FM311400 09005KT 3SM -SHSN OVC025
     FM311800 28003KT P6SM VCSH OVC012
     FM010000 04005KT P6SM BKN015=



000
FTUS43 KMQT 311153 AAA
TAFCMX
TAF AMD
KCMX 311153Z 3112/0112 10006KT P6SM SCT004
      TEMPO 3112/3114 2SM BR BKN004
     FM311400 09005KT 3SM -SHSN OVC025
     FM311800 28003KT P6SM VCSH OVC012
     FM010000 04005KT P6SM BKN015=



000
FTUS43 KMQT 311121
TAFSAW
TAF
KSAW 311121Z 3112/0112 15005KT P6SM OVC060
     FM311500 14005KT 3SM -SHSN OVC030
     FM312000 VRB03KT P6SM VCSH OVC015
     FM010100 01005KT P6SM BKN010=



000
FTUS43 KMQT 311121
TAFCMX
TAF
KCMX 311121Z 3112/0112 10006KT P6SM BKN050
     FM311400 09005KT 3SM -SHSN OVC025
     FM311800 28003KT P6SM VCSH OVC012
     FM010000 04005KT P6SM BKN015=



000
FTUS43 KMQT 310828 AAA
TAFCMX
TAF AMD
KCMX 310828Z 3108/0106 08005KT P6SM SCT004
      TEMPO 3108/3111 BKN005
     FM311200 11007KT 4SM -SN OVC030
     FM311500 09005KT 2SM -SN OVC007
     FM311800 28003KT P6SM VCSH OVC012
     FM010000 04005KT P6SM SCT015 SCT250=



000
FTUS43 KMQT 310828 AAA
TAFCMX
TAF AMD
KCMX 310828Z 3108/0106 08005KT P6SM SCT004
      TEMPO 3108/3111 BKN005
     FM311200 11007KT 4SM -SN OVC030
     FM311500 09005KT 2SM -SN OVC007
     FM311800 28003KT P6SM VCSH OVC012
     FM010000 04005KT P6SM SCT015 SCT250=



000
FTUS43 KMQT 310523
TAFCMX
TAF
KCMX 310523Z 3106/0106 08005KT P6SM SCT005
      TEMPO 3106/3108 BKN005
     FM311200 11007KT 4SM -SN OVC030
     FM311500 09005KT 2SM -SN OVC007
     FM311800 28003KT P6SM VCSH OVC012
     FM010000 04005KT P6SM SCT015 SCT250=



000
FTUS43 KMQT 310523
TAFSAW
TAF
KSAW 310523Z 3106/0106 VRB03KT P6SM SCT150
     FM311200 15005KT P6SM OVC060
     FM311500 14005KT 3SM -SN OVC030
     FM311900 VRB03KT P6SM VCSH OVC015
     FM010100 01005KT P6SM BKN015=



000
FTUS43 KMQT 310523
TAFSAW
TAF
KSAW 310523Z 3106/0106 VRB03KT P6SM SCT150
     FM311200 15005KT P6SM OVC060
     FM311500 14005KT 3SM -SN OVC030
     FM311900 VRB03KT P6SM VCSH OVC015
     FM010100 01005KT P6SM BKN015=



000
FTUS43 KMQT 310523
TAFCMX
TAF
KCMX 310523Z 3106/0106 08005KT P6SM SCT005
      TEMPO 3106/3108 BKN005
     FM311200 11007KT 4SM -SN OVC030
     FM311500 09005KT 2SM -SN OVC007
     FM311800 28003KT P6SM VCSH OVC012
     FM010000 04005KT P6SM SCT015 SCT250=



000
FTUS43 KMQT 302321
TAFSAW
TAF
KSAW 302321Z 3100/3124 06005KT P6SM SCT150
     FM311200 17005KT P6SM OVC060
     FM311500 14005KT 4SM -SN OVC030
     FM311700 12006KT 2SM -SN OVC010
     FM312000 05003KT 6SM -RASN OVC008=



000
FTUS43 KMQT 302321
TAFCMX
TAF
KCMX 302321Z 3100/3124 11005KT P6SM SCT150
     FM311200 11007KT 4SM -SN OVC030
     FM311500 09007KT 2SM -SN OVC007
     FM311900 04003KT P6SM VCSH OVC012=



000
FTUS43 KMQT 302321
TAFCMX
TAF
KCMX 302321Z 3100/3124 11005KT P6SM SCT150
     FM311200 11007KT 4SM -SN OVC030
     FM311500 09007KT 2SM -SN OVC007
     FM311900 04003KT P6SM VCSH OVC012=



000
FTUS43 KMQT 302321
TAFSAW
TAF
KSAW 302321Z 3100/3124 06005KT P6SM SCT150
     FM311200 17005KT P6SM OVC060
     FM311500 14005KT 4SM -SN OVC030
     FM311700 12006KT 2SM -SN OVC010
     FM312000 05003KT 6SM -RASN OVC008=



000
FTUS43 KMQT 301720
TAFCMX
TAF
KCMX 301720Z 3018/3118 30006KT P6SM SCT020
     FM302100 11005KT P6SM BKN120
     FM310300 11008KT P6SM BKN080
     FM311200 11013KT 3SM -SN OVC015
     FM311500 11013KT 1SM -SN OVC007=



000
FTUS43 KMQT 301720
TAFSAW
TAF
KSAW 301720Z 3018/3118 03010KT P6SM SCT040
     FM302100 04005KT P6SM SCT130
     FM310300 10003KT P6SM BKN110
     FM311500 12006KT 3SM -SN SCT010 OVC060
     FM311600 12006KT 1SM -SN OVC007=



000
FTUS43 KMQT 301720
TAFCMX
TAF
KCMX 301720Z 3018/3118 30006KT P6SM SCT020
     FM302100 11005KT P6SM BKN120
     FM310300 11008KT P6SM BKN080
     FM311200 11013KT 3SM -SN OVC015
     FM311500 11013KT 1SM -SN OVC007=



000
FTUS43 KMQT 301720
TAFSAW
TAF
KSAW 301720Z 3018/3118 03010KT P6SM SCT040
     FM302100 04005KT P6SM SCT130
     FM310300 10003KT P6SM BKN110
     FM311500 12006KT 3SM -SN SCT010 OVC060
     FM311600 12006KT 1SM -SN OVC007=



000
FTUS43 KMQT 301124
TAFSAW
TAF
KSAW 301124Z 3012/3112 31012KT P6SM -SHSN BKN015
     FM301300 32010KT P6SM BKN040
     FM302100 04005KT P6SM BKN150
     FM310300 10005KT P6SM OVC080=



000
FTUS43 KMQT 301124
TAFSAW
TAF
KSAW 301124Z 3012/3112 31012KT P6SM -SHSN BKN015
     FM301300 32010KT P6SM BKN040
     FM302100 04005KT P6SM BKN150
     FM310300 10005KT P6SM OVC080=



000
FTUS43 KMQT 301124
TAFCMX
TAF
KCMX 301124Z 3012/3112 30012KT P6SM SCT040
     FM302100 11005KT P6SM BKN120
     FM310300 11008KT P6SM BKN080=



000
FTUS43 KMQT 301124
TAFCMX
TAF
KCMX 301124Z 3012/3112 30012KT P6SM SCT040
     FM302100 11005KT P6SM BKN120
     FM310300 11008KT P6SM BKN080=



000
FTUS43 KMQT 300931 AAA
TAFSAW
TAF AMD
KSAW 300931Z 3010/3106 31012KT P6SM -SHSN BKN025
      TEMPO 3010/3012 5SM -SHSN BKN015
     FM301200 32010KT P6SM BKN040
     FM302100 04005KT P6SM BKN150
     FM310300 10005KT P6SM VCSH OVC060=



    US Dept of Commerce
    National Oceanic and Atmospheric Administration
    National Weather Service
    1325 East West Highway
    Silver Spring, MD 20910
    Page Author: NWS Internet Services Team
Disclaimer
Information Quality
Credits
Glossary
Privacy Policy
Freedom of Information Act (FOIA)
About Us
Career Opportunities